createdAt,value
2022-10-22T00:00:33.098Z,16.09
2022-10-22T00:03:35.805Z,16.10
2022-10-22T00:06:38.298Z,16.10
2022-10-22T00:09:40.845Z,16.13
2022-10-22T00:12:44.674Z,16.08
2022-10-22T00:15:47.225Z,16.05
2022-10-22T00:18:50.128Z,16.07
2022-10-22T00:21:52.600Z,15.99
2022-10-22T00:24:55.094Z,16.02
2022-10-22T00:27:58.909Z,15.73
2022-10-22T00:31:02.358Z,15.91
2022-10-22T00:34:04.874Z,15.82
2022-10-22T00:37:07.345Z,15.83
2022-10-22T00:40:11.569Z,15.93
2022-10-22T00:43:18.250Z,15.83
2022-10-22T00:46:20.737Z,15.81
2022-10-22T00:49:23.286Z,15.83
2022-10-22T00:52:26.041Z,15.86
2022-10-22T00:55:30.660Z,15.78
2022-10-22T00:58:37.713Z,15.71
2022-10-22T01:01:40.189Z,15.86
2022-10-22T01:04:42.765Z,15.92
2022-10-22T01:07:49.037Z,15.99
2022-10-22T01:11:01.406Z,16.01
2022-10-22T01:14:14.672Z,16.05
2022-10-22T01:17:25.721Z,15.82
2022-10-22T01:20:45.646Z,15.98
2022-10-22T01:24:18.635Z,15.81
2022-10-22T01:27:48.651Z,15.76
2022-10-22T01:30:57.470Z,15.93
2022-10-22T01:34:01.916Z,15.86
2022-10-22T01:37:04.689Z,15.93
2022-10-22T01:40:10.256Z,16.02
2022-10-22T01:43:13.373Z,15.96
2022-10-22T01:46:19.606Z,15.95
2022-10-22T01:49:32.534Z,15.81
2022-10-22T01:52:46.169Z,15.95
2022-10-22T01:56:05.753Z,16.00
2022-10-22T01:59:18.650Z,15.86
2022-10-22T02:02:32.102Z,15.72
2022-10-22T02:05:39.552Z,15.84
2022-10-22T02:08:44.209Z,15.83
2022-10-22T02:11:48.610Z,15.73
2022-10-22T02:14:51.754Z,15.71
2022-10-22T02:17:58.431Z,15.72
2022-10-22T02:21:01.974Z,15.66
2022-10-22T02:24:05.517Z,15.56
2022-10-22T02:27:13.549Z,15.62
2022-10-22T02:30:19.067Z,15.40
2022-10-22T02:33:26.306Z,15.47
2022-10-22T02:36:29.902Z,15.42
2022-10-22T02:39:34.136Z,15.37
2022-10-22T02:42:38.843Z,15.36
2022-10-22T02:45:41.627Z,15.39
2022-10-22T02:48:45.514Z,15.34
2022-10-22T02:51:48.002Z,15.32
2022-10-22T02:54:50.484Z,15.26
2022-10-22T02:57:52.961Z,15.27
2022-10-22T03:00:55.643Z,15.26
2022-10-22T03:03:59.477Z,15.23
2022-10-22T03:07:01.954Z,15.13
2022-10-22T03:10:04.965Z,15.09
2022-10-22T03:13:07.447Z,15.09
2022-10-22T03:16:10.043Z,15.04
2022-10-22T03:19:13.902Z,15.01
2022-10-22T03:22:22.283Z,15.06
2022-10-22T03:25:27.841Z,15.02
2022-10-22T03:28:30.578Z,15.01
2022-10-22T03:31:33.116Z,14.99
2022-10-22T03:34:36.920Z,14.95
2022-10-22T03:37:40.761Z,14.91
2022-10-22T03:40:45.695Z,14.95
2022-10-22T03:43:51.469Z,14.92
2022-10-22T03:46:57.506Z,14.99
2022-10-22T03:50:04.668Z,14.87
2022-10-22T03:53:10.444Z,14.85
2022-10-22T03:56:13.722Z,14.84
2022-10-22T03:59:16.491Z,14.96
2022-10-22T04:02:18.990Z,14.89
2022-10-22T04:05:22.942Z,15.00
2022-10-22T04:08:25.429Z,14.78
2022-10-22T04:11:27.945Z,15.03
2022-10-22T04:14:30.440Z,15.06
2022-10-22T04:17:35.194Z,15.11
2022-10-22T04:20:39.021Z,15.05
2022-10-22T04:23:46.764Z,14.88
2022-10-22T04:26:49.236Z,14.93
2022-10-22T04:29:51.730Z,14.96
2022-10-22T04:32:54.262Z,15.05
2022-10-22T04:35:58.078Z,15.09
2022-10-22T04:39:02.254Z,15.13
2022-10-22T04:42:05.096Z,15.14
2022-10-22T04:45:08.485Z,15.01
2022-10-22T04:48:10.972Z,15.06
2022-10-22T04:51:17.368Z,15.18
2022-10-22T04:54:19.969Z,15.14
2022-10-22T04:57:22.458Z,15.17
2022-10-22T05:00:24.937Z,15.27
2022-10-22T05:03:27.471Z,15.30
2022-10-22T05:06:32.616Z,15.20
2022-10-22T05:09:35.159Z,15.20
2022-10-22T05:12:37.632Z,15.11
2022-10-22T05:15:40.120Z,15.19
2022-10-22T05:18:44.503Z,14.88
2022-10-22T05:21:48.348Z,14.62
2022-10-22T05:24:50.832Z,14.71
2022-10-22T05:27:56.125Z,14.93
2022-10-22T05:31:01.259Z,14.97
2022-10-22T05:34:03.789Z,14.97
2022-10-22T05:37:07.597Z,15.02
2022-10-22T05:40:19.630Z,14.90
2022-10-22T05:43:29.758Z,15.01
2022-10-22T05:46:35.843Z,14.68
2022-10-22T05:49:38.340Z,14.94
2022-10-22T05:52:42.491Z,15.02
2022-10-22T05:55:45.662Z,15.02
2022-10-22T05:58:48.226Z,14.68
2022-10-22T06:01:50.778Z,14.80
2022-10-22T06:04:53.283Z,14.72
2022-10-22T06:07:58.523Z,14.85
2022-10-22T06:11:01.778Z,14.86
2022-10-22T06:14:04.806Z,14.87
2022-10-22T06:17:07.284Z,14.92
2022-10-22T06:20:11.200Z,15.04
2022-10-22T06:23:15.572Z,14.97
2022-10-22T06:26:18.330Z,14.88
2022-10-22T06:29:20.853Z,14.91
2022-10-22T06:32:23.327Z,14.87
2022-10-22T06:35:25.879Z,14.82
2022-10-22T06:38:29.690Z,14.87
2022-10-22T06:41:32.357Z,14.91
2022-10-22T06:44:34.854Z,14.97
2022-10-22T06:47:37.339Z,15.00
2022-10-22T06:50:40.258Z,14.94
2022-10-22T06:53:44.147Z,15.01
2022-10-22T06:56:46.640Z,14.89
2022-10-22T06:59:49.113Z,14.94
2022-10-22T07:02:57.608Z,15.04
2022-10-22T07:06:02.566Z,15.05
2022-10-22T07:09:06.466Z,14.98
2022-10-22T07:12:09.017Z,15.04
2022-10-22T07:15:11.610Z,15.03
2022-10-22T07:18:14.093Z,14.99
2022-10-22T07:21:18.638Z,15.08
2022-10-22T07:24:22.458Z,14.91
2022-10-22T07:27:24.942Z,15.04
2022-10-22T07:30:27.432Z,15.13
2022-10-22T07:33:29.985Z,15.18
2022-10-22T07:36:32.506Z,15.22
2022-10-22T07:39:36.470Z,15.22
2022-10-22T07:42:38.967Z,15.06
2022-10-22T07:45:41.884Z,15.17
2022-10-22T07:48:44.357Z,15.27
2022-10-22T07:51:46.839Z,15.24
2022-10-22T07:54:50.658Z,15.38
2022-10-22T07:57:53.228Z,15.51
2022-10-22T08:00:57.052Z,15.62
2022-10-22T08:03:59.533Z,15.60
2022-10-22T08:07:02.085Z,15.71
2022-10-22T08:10:06.912Z,15.61
2022-10-22T08:13:09.722Z,15.61
2022-10-22T08:16:12.211Z,15.82
2022-10-22T08:19:18.668Z,15.97
2022-10-22T08:22:21.369Z,16.09
2022-10-22T08:25:25.264Z,15.97
2022-10-22T08:28:29.578Z,16.10
2022-10-22T08:31:32.191Z,16.15
2022-10-22T08:34:34.718Z,15.90
2022-10-22T08:37:37.282Z,16.00
2022-10-22T08:40:42.020Z,15.96
2022-10-22T08:44:04.392Z,16.15
2022-10-22T08:47:32.809Z,16.39
2022-10-22T08:50:39.714Z,16.06
2022-10-22T08:53:52.516Z,16.22
2022-10-22T08:57:07.815Z,16.44
2022-10-22T09:00:15.071Z,16.32
2022-10-22T09:03:32.510Z,16.50
2022-10-22T09:06:37.700Z,16.57
2022-10-22T09:09:47.958Z,16.89
2022-10-22T09:12:51.959Z,17.12
2022-10-22T09:15:58.398Z,16.95
2022-10-22T09:19:13.683Z,16.91
2022-10-22T09:22:26.759Z,17.28
2022-10-22T09:25:32.252Z,17.52
2022-10-22T09:28:36.081Z,17.92
2022-10-22T09:31:38.552Z,18.01
2022-10-22T09:34:41.454Z,18.06
2022-10-22T09:37:52.268Z,18.43
2022-10-22T09:40:56.916Z,18.30
2022-10-22T09:44:00.836Z,18.32
2022-10-22T09:47:05.686Z,18.61
2022-10-22T09:50:21.001Z,18.73
2022-10-22T09:53:28.273Z,18.38
2022-10-22T09:56:36.635Z,18.35
2022-10-22T09:59:43.271Z,18.93
2022-10-22T10:02:45.761Z,19.70
2022-10-22T10:05:50.200Z,19.86
2022-10-22T10:08:52.982Z,20.41
2022-10-22T10:12:06.012Z,20.41
2022-10-22T10:15:21.333Z,20.49
2022-10-22T10:18:34.828Z,20.94
2022-10-22T10:21:46.082Z,21.70
2022-10-22T10:25:06.033Z,22.31
2022-10-22T10:28:29.814Z,22.93
2022-10-22T10:31:44.566Z,23.42
2022-10-22T10:34:55.671Z,23.21
2022-10-22T10:38:16.665Z,23.94
2022-10-22T10:41:26.505Z,24.59
2022-10-22T10:44:46.113Z,23.97
2022-10-22T10:48:25.002Z,24.70
2022-10-22T10:51:39.117Z,25.61
2022-10-22T10:54:48.011Z,25.60
2022-10-22T10:57:57.181Z,25.73
2022-10-22T11:01:06.235Z,26.75
2022-10-22T11:04:25.804Z,27.27
2022-10-22T11:07:35.435Z,27.15
2022-10-22T11:10:41.294Z,26.25
2022-10-22T11:13:50.342Z,26.39
2022-10-22T11:16:57.219Z,26.63
2022-10-22T11:20:06.850Z,27.09
2022-10-22T11:23:20.855Z,27.19
2022-10-22T11:26:33.173Z,26.11
2022-10-22T11:29:41.658Z,24.07
2022-10-22T11:32:48.130Z,23.41
2022-10-22T11:35:53.639Z,22.56
2022-10-22T11:38:56.762Z,21.98
2022-10-22T11:41:59.958Z,22.09
2022-10-22T11:45:05.670Z,22.74
2022-10-22T11:48:16.858Z,22.24
2022-10-22T11:51:33.960Z,23.02
2022-10-22T11:54:43.316Z,24.28
2022-10-22T11:57:45.806Z,24.83
2022-10-22T12:00:49.621Z,24.70
2022-10-22T12:03:53.906Z,23.59
2022-10-22T12:07:00.394Z,22.84
2022-10-22T12:10:07.396Z,22.32
2022-10-22T12:13:16.506Z,21.93
2022-10-22T12:16:32.069Z,22.05
2022-10-22T12:19:45.218Z,22.22
2022-10-22T12:22:49.302Z,22.18
2022-10-22T12:25:51.802Z,23.39
2022-10-22T12:28:59.289Z,24.66
2022-10-22T12:32:05.505Z,25.27
2022-10-22T12:35:10.191Z,25.82
2022-10-22T12:38:17.224Z,26.53
2022-10-22T12:41:19.736Z,27.52
2022-10-22T12:44:22.311Z,26.14
2022-10-22T12:47:24.847Z,24.41
2022-10-22T12:50:33.901Z,21.59
2022-10-22T12:53:40.704Z,21.53
2022-10-22T12:56:43.307Z,21.32
2022-10-22T12:59:49.875Z,20.72
2022-10-22T13:02:54.066Z,20.42
2022-10-22T13:05:56.616Z,20.54
2022-10-22T13:09:08.905Z,21.06
2022-10-22T13:12:16.262Z,20.92
2022-10-22T13:15:34.458Z,20.78
2022-10-22T13:18:36.978Z,20.96
2022-10-22T13:21:40.350Z,20.70
2022-10-22T13:24:51.397Z,20.30
2022-10-22T13:27:56.898Z,20.18
2022-10-22T13:31:01.485Z,20.28
2022-10-22T13:34:11.725Z,20.40
2022-10-22T13:37:15.487Z,20.05
2022-10-22T13:40:20.097Z,19.81
2022-10-22T13:43:22.922Z,19.57
2022-10-22T13:46:27.462Z,19.60
2022-10-22T13:49:30.046Z,19.61
2022-10-22T13:52:39.642Z,19.45
2022-10-22T13:55:44.966Z,19.56
2022-10-22T13:58:48.927Z,19.51
2022-10-22T14:01:51.811Z,19.68
2022-10-22T14:04:54.782Z,19.70
2022-10-22T14:07:58.021Z,19.77
2022-10-22T14:11:01.873Z,19.85
2022-10-22T14:14:08.611Z,19.83
2022-10-22T14:17:16.702Z,19.67
2022-10-22T14:20:22.398Z,19.61
2022-10-22T14:23:27.849Z,19.70
2022-10-22T14:26:34.950Z,19.56
2022-10-22T14:29:37.434Z,19.45
2022-10-22T14:32:40.228Z,19.34
2022-10-22T14:35:42.912Z,19.50
2022-10-22T14:38:47.242Z,19.63
2022-10-22T14:41:51.066Z,19.57
2022-10-22T14:44:53.585Z,19.41
2022-10-22T14:47:56.234Z,19.51
2022-10-22T14:50:58.705Z,19.59
2022-10-22T14:54:01.249Z,19.44
2022-10-22T14:57:06.021Z,19.20
2022-10-22T15:00:12.240Z,19.12
2022-10-22T15:03:14.766Z,19.09
2022-10-22T15:06:17.542Z,19.06
2022-10-22T15:09:20.061Z,19.06
2022-10-22T15:12:23.922Z,18.86
2022-10-22T15:15:30.511Z,18.71
2022-10-22T15:18:37.957Z,18.82
2022-10-22T15:24:49.528Z,18.59
2022-10-22T15:27:54.878Z,18.57
2022-10-22T15:31:02.064Z,18.37
2022-10-22T15:34:04.556Z,18.36
2022-10-22T15:37:08.972Z,18.37
2022-10-22T15:40:12.097Z,18.21
2022-10-22T15:43:15.922Z,18.36
2022-10-22T15:46:20.420Z,18.39
2022-10-22T15:49:23.251Z,18.33
2022-10-22T15:52:25.797Z,18.03
2022-10-22T15:55:28.297Z,18.00
2022-10-22T15:58:32.232Z,17.90
2022-10-22T16:01:36.089Z,17.57
2022-10-22T16:04:38.802Z,17.27
2022-10-22T16:07:41.673Z,17.33
2022-10-22T16:10:47.053Z,17.33
2022-10-22T16:13:54.616Z,17.19
2022-10-22T16:16:59.440Z,17.13
2022-10-22T16:20:02.039Z,17.29
2022-10-22T16:23:04.549Z,17.00
2022-10-22T16:26:07.546Z,17.02
2022-10-22T16:29:12.540Z,17.10
2022-10-22T16:32:16.377Z,17.07
2022-10-22T16:35:18.865Z,16.90
2022-10-22T16:38:21.355Z,16.86
2022-10-22T16:41:25.573Z,16.84
2022-10-22T16:44:29.709Z,16.87
2022-10-22T16:47:32.197Z,16.87
2022-10-22T16:50:34.652Z,16.81
2022-10-22T16:53:37.711Z,16.77
2022-10-22T16:56:40.337Z,16.71
2022-10-22T16:59:44.149Z,16.85
2022-10-22T17:02:51.537Z,16.90
2022-10-22T17:05:54.035Z,16.96
2022-10-22T17:08:56.677Z,16.52
2022-10-22T17:11:59.208Z,16.63
2022-10-22T17:15:03.219Z,16.38
2022-10-22T17:18:25.995Z,16.48
2022-10-22T17:21:28.532Z,16.67
2022-10-22T17:24:31.094Z,16.74
2022-10-22T17:27:33.624Z,16.44
2022-10-22T17:30:38.851Z,16.37
2022-10-22T17:33:41.364Z,16.58
2022-10-22T17:36:44.985Z,16.56
2022-10-22T17:39:47.513Z,16.65
2022-10-22T17:42:50.232Z,16.31
2022-10-22T17:45:54.040Z,16.51
2022-10-22T17:48:58.796Z,16.42
2022-10-22T17:52:01.420Z,16.44
2022-10-22T17:55:04.613Z,16.66
2022-10-22T17:58:07.135Z,16.60
2022-10-22T18:01:20.344Z,16.63
2022-10-22T18:04:23.811Z,16.50
2022-10-22T18:07:26.342Z,16.39
2022-10-22T18:10:29.784Z,16.52
2022-10-22T18:13:33.446Z,16.42
2022-10-22T18:16:37.478Z,16.44
2022-10-22T18:19:39.970Z,16.29
2022-10-22T18:22:42.599Z,16.35
2022-10-22T18:25:46.152Z,16.45
2022-10-22T18:28:49.076Z,16.40
2022-10-22T18:31:52.986Z,16.58
2022-10-22T18:34:55.464Z,16.65
2022-10-22T18:37:57.931Z,16.62
2022-10-22T18:41:00.497Z,16.57
2022-10-22T18:44:05.337Z,16.55
2022-10-22T18:47:09.199Z,16.55
2022-10-22T18:50:12.079Z,16.47
2022-10-22T18:53:16.091Z,16.56
2022-10-22T18:56:19.268Z,16.49
2022-10-22T18:59:23.692Z,16.41
2022-10-22T19:02:27.692Z,16.40
2022-10-22T19:05:30.266Z,16.42
2022-10-22T19:08:33.204Z,16.18
2022-10-22T19:11:36.355Z,16.31
2022-10-22T19:14:38.850Z,16.44
2022-10-22T19:17:42.889Z,16.47
2022-10-22T19:20:47.615Z,16.56
2022-10-22T19:23:51.537Z,16.52
2022-10-22T19:26:54.758Z,16.30
2022-10-22T19:29:57.234Z,16.31
2022-10-22T19:33:01.174Z,16.34
2022-10-22T19:36:05.547Z,16.14
2022-10-22T19:39:08.855Z,16.01
2022-10-22T19:42:11.324Z,16.11
2022-10-22T19:45:13.810Z,16.12
2022-10-22T19:48:17.624Z,16.15
2022-10-22T19:51:22.059Z,15.93
2022-10-22T19:54:24.567Z,16.06
2022-10-22T19:57:27.044Z,15.92
2022-10-22T20:00:29.629Z,16.04
2022-10-22T20:03:36.117Z,16.09
2022-10-22T20:06:38.626Z,16.05
2022-10-22T20:09:42.276Z,16.00
2022-10-22T20:12:45.628Z,16.00
2022-10-22T20:15:49.832Z,15.95
2022-10-22T20:18:53.991Z,15.88
2022-10-22T20:21:56.823Z,15.91
2022-10-22T20:24:59.332Z,15.83
2022-10-22T20:28:01.863Z,15.84
2022-10-22T20:31:09.605Z,15.84
2022-10-22T20:34:13.823Z,15.81
2022-10-22T20:37:16.349Z,15.82
2022-10-22T20:40:20.132Z,15.87
2022-10-22T20:43:22.617Z,15.79
2022-10-22T20:46:27.569Z,15.64
2022-10-22T20:49:32.809Z,15.48
2022-10-22T20:52:35.330Z,15.64
2022-10-22T20:55:37.850Z,15.59
2022-10-22T20:58:46.166Z,15.56
2022-10-22T21:01:50.360Z,15.64
2022-10-22T21:04:54.169Z,15.61
2022-10-22T21:07:58.374Z,15.60
2022-10-22T21:11:00.948Z,15.55
2022-10-22T21:14:04.099Z,15.51
2022-10-22T21:17:08.017Z,15.34
2022-10-22T21:20:11.997Z,15.40
2022-10-22T21:23:14.607Z,15.42
2022-10-22T21:26:17.210Z,15.31
2022-10-22T21:29:21.109Z,15.34
2022-10-22T21:32:23.606Z,15.24
2022-10-22T21:35:28.366Z,15.25
2022-10-22T21:38:31.097Z,15.20
2022-10-22T21:41:34.020Z,15.17
2022-10-22T21:44:36.578Z,15.09
2022-10-22T21:47:39.153Z,15.13
2022-10-22T21:50:44.518Z,15.19
2022-10-22T21:53:47.430Z,15.13
2022-10-22T21:56:50.079Z,15.12
2022-10-22T21:59:53.018Z,15.09
2022-10-22T22:02:56.108Z,15.01
2022-10-22T22:06:01.185Z,14.86
2022-10-22T22:09:05.728Z,14.91
2022-10-22T22:12:09.402Z,14.96
2022-10-22T22:15:12.093Z,14.65
2022-10-22T22:18:14.565Z,14.79
2022-10-22T22:21:20.485Z,14.67
2022-10-22T22:24:22.989Z,14.87
2022-10-22T22:27:25.469Z,14.83
2022-10-22T22:30:29.141Z,14.77
2022-10-22T22:33:31.616Z,14.39
2022-10-22T22:36:37.193Z,14.53
2022-10-22T22:39:39.682Z,14.64
2022-10-22T22:42:42.171Z,14.72
2022-10-22T22:45:44.636Z,14.62
2022-10-22T22:48:48.736Z,14.56
2022-10-22T22:51:52.580Z,14.73
2022-10-22T22:54:55.061Z,14.49
2022-10-22T22:57:57.545Z,14.40
2022-10-22T23:01:10.765Z,14.32
2022-10-22T23:04:16.274Z,14.32
2022-10-22T23:07:20.127Z,14.56
2022-10-22T23:10:22.628Z,14.57
2022-10-22T23:13:25.098Z,14.64
2022-10-22T23:16:30.184Z,14.63
2022-10-22T23:19:32.667Z,14.65
2022-10-22T23:22:36.494Z,14.63
2022-10-22T23:25:38.974Z,14.64
2022-10-22T23:28:41.657Z,14.63
2022-10-22T23:31:45.119Z,14.60
2022-10-22T23:34:47.634Z,14.42
2022-10-22T23:37:51.493Z,14.51
2022-10-22T23:40:57.388Z,14.49
2022-10-22T23:44:00.114Z,14.49
2022-10-22T23:47:02.591Z,14.53
2022-10-22T23:50:05.385Z,14.29
2022-10-22T23:53:09.456Z,14.16
2022-10-22T23:56:15.189Z,14.29
2022-10-22T23:59:17.719Z,14.24
